Time;durP1;ratioP1;P1;durP2;ratioP2;P2;SDS_P1;SDS_P2;PMS_P1;PMS_P2;Temp;Humidity;BMP_temperature;BMP_pressure;BME280_temperature;BME280_humidity;BME280_pressure;Samples;Min_cycle;Max_cycle;Signal;HPM_P1;HPM_P2
2023/01/25 05:31:26;;;;;;;31.75;12.15;;;4.50;74.90;;;;;;5427043;23;20059;-76
2023/01/25 05:33:52;;;;;;;45.58;15.63;;;4.40;75.10;;;;;;4936191;29;20459;-76
2023/01/25 05:36:24;;;;;;;34.90;12.77;;;4.50;75.00;;;;;;4921922;29;20024;-77
2023/01/25 05:38:51;;;;;;;33.88;14.95;;;4.50;75.00;;;;;;4928303;29;20032;-76
2023/01/25 05:41:17;;;;;;;43.08;16.45;;;4.50;75.00;;;;;;4920609;29;20036;-75
2023/01/25 05:43:46;;;;;;;31.58;14.35;;;4.50;75.00;;;;;;4903312;29;20040;-83
2023/01/25 05:46:12;;;;;;;36.92;13.73;;;4.50;74.90;;;;;;4920083;29;20059;-79
2023/01/25 05:48:38;;;;;;;33.97;13.85;;;4.60;74.90;;;;;;4920381;29;20514;-77
2023/01/25 05:51:04;;;;;;;34.03;13.35;;;4.60;74.80;;;;;;4920103;29;20020;-76
2023/01/25 05:53:35;;;;;;;38.30;15.98;;;4.50;74.80;;;;;;4921128;29;20103;-78
2023/01/25 05:56:07;;;;;;;;;;;4.60;74.80;;;;;;4930820;29;20027;-81
2023/01/25 05:58:33;;;;;;;32.60;12.90;;;4.50;74.70;;;;;;4958388;29;19914;-77
2023/01/25 06:01:03;;;;;;;45.30;15.38;;;4.50;74.60;;;;;;4936226;29;20038;-76
2023/01/25 06:03:28;;;;;;;38.05;15.45;;;4.40;74.80;;;;;;4916297;29;20028;-76
2023/01/25 06:06:00;;;;;;;31.08;13.50;;;4.40;74.80;;;;;;4935468;29;20043;-75
2023/01/25 06:08:26;;;;;;;33.53;11.98;;;4.40;74.90;;;;;;4939196;29;20130;-75
2023/01/25 06:10:52;;;;;;;37.78;14.40;;;4.40;75.20;;;;;;4935840;29;20024;-76
2023/01/25 06:13:18;;;;;;;41.30;15.45;;;4.40;75.20;;;;;;4912229;29;20047;-76
2023/01/25 06:15:54;;;;;;;25.95;12.05;;;4.40;75.20;;;;;;4920294;29;20491;-76
2023/01/25 06:18:20;;;;;;;34.70;12.43;;;4.40;75.10;;;;;;4958457;29;20030;-77
2023/01/25 06:20:46;;;;;;;42.42;14.85;;;4.40;75.10;;;;;;4926168;29;20495;-79
2023/01/25 06:23:12;;;;;;;34.38;12.73;;;4.30;75.00;;;;;;4919779;29;20095;-78
2023/01/25 06:25:37;;;;;;;27.95;13.20;;;4.30;75.20;;;;;;4919874;29;20028;-78
2023/01/25 06:28:03;;;;;;;33.42;14.70;;;4.20;75.20;;;;;;4919967;29;20052;-77
2023/01/25 06:30:29;;;;;;;38.70;14.18;;;4.20;75.20;;;;;;4936865;29;20067;-81
2023/01/25 06:32:57;;;;;;;43.40;17.90;;;4.20;75.30;;;;;;4936485;29;20063;-75
2023/01/25 06:35:23;;;;;;;28.55;12.75;;;4.20;75.00;;;;;;4908907;29;20028;-77
2023/01/25 06:37:48;;;;;;;31.35;12.93;;;4.10;75.30;;;;;;4924109;29;20024;-77
2023/01/25 06:40:14;;;;;;;37.90;15.80;;;4.10;75.70;;;;;;4919984;29;20055;-78
2023/01/25 06:42:40;;;;;;;36.20;14.80;;;4.10;75.40;;;;;;4920439;29;20402;-80
2023/01/25 06:45:08;;;;;;;31.67;12.18;;;4.10;75.40;;;;;;4938694;29;20099;-78
2023/01/25 06:47:34;;;;;;;42.08;15.00;;;4.20;75.40;;;;;;4923793;29;20134;-80
2023/01/25 06:50:00;;;;;;;37.75;16.60;;;4.20;75.50;;;;;;4943571;29;20067;-79
2023/01/25 06:52:26;;;;;;;41.38;15.93;;;4.20;75.30;;;;;;4925932;29;20042;-79
2023/01/25 06:54:51;;;;;;;34.95;15.43;;;4.20;75.10;;;;;;4931087;29;20399;-79
2023/01/25 06:57:17;;;;;;;30.73;12.02;;;4.20;75.10;;;;;;4938669;29;20573;-79
2023/01/25 06:59:42;;;;;;;35.20;14.73;;;4.20;75.20;;;;;;4917472;29;20130;-79
2023/01/25 07:02:14;;;;;;;42.95;15.02;;;4.30;75.20;;;;;;4919145;29;20036;-79
2023/01/25 07:04:40;;;;;;;39.47;14.85;;;4.30;75.00;;;;;;4935974;29;20046;-79
2023/01/25 07:07:08;;;;;;;47.75;18.15;;;4.30;75.00;;;;;;4937163;29;20036;-79
2023/01/25 07:09:35;;;;;;;37.53;15.88;;;4.20;74.70;;;;;;4919271;29;20084;-79
2023/01/25 07:12:01;;;;;;;34.72;15.10;;;4.20;74.90;;;;;;4924631;29;20491;-79
2023/01/25 07:14:27;;;;;;;32.50;13.90;;;4.20;75.00;;;;;;4917758;29;20032;-79
2023/01/25 07:16:52;;;;;;;34.38;14.43;;;4.20;74.90;;;;;;4919406;29;20056;-79
2023/01/25 07:19:18;;;;;;;30.15;12.20;;;4.20;74.80;;;;;;4919636;29;20056;-78
2023/01/25 07:21:45;;;;;;;35.05;17.23;;;4.20;75.10;;;;;;4925780;29;20025;-80
2023/01/25 07:24:14;;;;;;;42.08;15.82;;;4.10;75.10;;;;;;4917083;29;20040;-79
2023/01/25 07:26:40;;;;;;;40.03;17.45;;;4.10;75.00;;;;;;4925339;29;20026;-79
2023/01/25 07:29:08;;;;;;;35.78;15.50;;;4.00;75.20;;;;;;4926210;29;20095;-79
2023/01/25 07:31:34;;;;;;;36.72;15.45;;;4.00;75.40;;;;;;4925752;29;20466;-78
2023/01/25 07:34:00;;;;;;;38.13;15.43;;;4.10;75.10;;;;;;4924111;29;20036;-79
2023/01/25 07:36:29;;;;;;;37.90;17.35;;;4.00;75.10;;;;;;4925487;29;20070;-79
2023/01/25 07:38:56;;;;;;;43.38;15.68;;;4.00;75.10;;;;;;4909621;29;20032;-79
2023/01/25 07:41:23;;;;;;;29.88;14.60;;;4.00;75.00;;;;;;4925672;29;20024;-79
2023/01/25 07:43:49;;;;;;;46.95;16.40;;;4.00;75.00;;;;;;4925349;29;20032;-79
2023/01/25 07:46:16;;;;;;;33.45;13.88;;;4.00;74.80;;;;;;4925398;29;20111;-79
2023/01/25 07:48:48;;;;;;;32.42;13.90;;;3.90;74.70;;;;;;4924971;29;20028;-79
2023/01/25 07:51:21;;;;;;;32.13;14.18;;;4.00;74.80;;;;;;4930788;29;20027;-79
2023/01/25 07:53:52;;;;;;;37.10;15.02;;;4.00;74.60;;;;;;4928266;29;20031;-79
2023/01/25 07:56:19;;;;;;;35.72;14.13;;;4.00;74.50;;;;;;4929168;29;20399;-79
2023/01/25 07:59:07;;;;;;;45.38;16.33;;;4.00;74.20;;;;;;4925357;29;20033;-79
2023/01/25 08:01:33;;;;;;;39.90;16.23;;;4.00;74.00;;;;;;4925127;29;20059;-79
2023/01/25 08:03:59;;;;;;;50.60;16.98;;;4.00;74.20;;;;;;4936478;29;20031;-79
2023/01/25 08:06:34;;;;;;;45.13;17.60;;;4.00;74.10;;;;;;4944280;29;20110;-79
2023/01/25 08:09:03;;;;;;;39.47;17.02;;;4.10;74.10;;;;;;4938081;29;20028;-79
2023/01/25 08:11:30;;;;;;;32.63;14.65;;;4.20;74.00;;;;;;4919236;29;20028;-79
2023/01/25 08:13:56;;;;;;;37.47;17.50;;;4.10;74.00;;;;;;4944270;29;20053;-79
2023/01/25 08:16:24;;;;;;;29.80;13.70;;;4.10;74.00;;;;;;4943963;29;20074;-79
2023/01/25 08:18:52;;;;;;;39.53;16.13;;;4.10;73.90;;;;;;4936984;29;20039;-79
2023/01/25 08:21:18;;;;;;;34.70;15.48;;;4.10;73.80;;;;;;4908476;29;20043;-79
2023/01/25 08:23:44;;;;;;;44.47;16.70;;;4.00;73.70;;;;;;4918913;29;20032;-79
2023/01/25 08:26:12;;;;;;;50.13;20.42;;;4.00;73.50;;;;;;4924434;29;20122;-79
2023/01/25 08:28:37;;;;;;;40.40;19.58;;;4.00;73.90;;;;;;4907833;29;20513;-79
2023/01/25 08:31:13;;;;;;;35.35;16.75;;;4.00;73.80;;;;;;4923815;29;20130;-79
2023/01/25 08:33:39;;;;;;;44.20;16.38;;;4.00;73.70;;;;;;4930086;29;20036;-79
2023/01/25 08:36:07;;;;;;;45.67;17.20;;;4.00;73.80;;;;;;4940046;29;20042;-79
2023/01/25 08:38:33;;;;;;;35.17;14.85;;;3.90;73.80;;;;;;4923925;29;20030;-79
2023/01/25 08:41:25;;;;;;;30.83;14.98;;;3.90;73.60;;;;;;4941021;29;20095;-79
2023/01/25 08:43:53;;;;;;;29.35;12.65;;;4.00;73.50;;;;;;4931507;29;20048;-79
2023/01/25 08:46:19;;;;;;;39.78;16.95;;;4.00;73.50;;;;;;4923220;29;20467;-79
2023/01/25 08:48:45;;;;;;;28.88;13.38;;;4.00;73.10;;;;;;4940077;29;20247;-79
2023/01/25 08:51:15;;;;;;;29.33;13.93;;;4.00;73.20;;;;;;4940740;29;20534;-79
2023/01/25 08:53:41;;;;;;;46.97;18.05;;;3.90;73.50;;;;;;4933727;29;20511;-79
2023/01/25 08:56:09;;;;;;;34.70;12.57;;;3.90;73.10;;;;;;4941094;29;20143;-79
2023/01/25 08:58:37;;;;;;;32.35;14.00;;;3.80;73.50;;;;;;4937949;29;20032;-79
2023/01/25 09:01:08;;;;;;;32.60;16.20;;;3.90;73.60;;;;;;4905028;29;20091;-79
2023/01/25 09:03:39;;;;;;;42.35;15.25;;;3.90;73.40;;;;;;4920521;29;20070;-79
2023/01/25 09:06:06;;;;;;;41.42;17.65;;;3.90;73.30;;;;;;4923706;29;20109;-79
2023/01/25 09:08:32;;;;;;;34.72;16.48;;;4.00;73.30;;;;;;4940750;29;20064;-79
2023/01/25 09:11:05;;;;;;;38.58;16.65;;;4.00;73.20;;;;;;4939148;29;20043;-79
2023/01/25 09:13:30;;;;;;;28.33;12.77;;;4.00;73.20;;;;;;4941198;29;20035;-79
2023/01/25 09:16:07;;;;;;;33.88;16.38;;;4.00;73.10;;;;;;4940322;29;20032;-79
2023/01/25 09:18:35;;;;;;;36.60;15.02;;;4.10;73.00;;;;;;4923392;29;20473;-79
2023/01/25 09:21:12;;;;;;;34.30;16.17;;;4.10;72.90;;;;;;4919171;29;20042;-79
2023/01/25 09:23:38;;;;;;;33.85;13.75;;;4.10;72.90;;;;;;4921716;29;20088;-79
2023/01/25 09:26:04;;;;;;;38.63;13.75;;;4.10;72.90;;;;;;4921054;29;20028;-79
2023/01/25 09:28:32;;;;;;;38.15;16.30;;;4.10;72.90;;;;;;4921701;29;20038;-79
2023/01/25 09:31:00;;;;;;;40.95;16.63;;;4.10;73.20;;;;;;4920859;29;20060;-79
2023/01/25 09:33:33;;;;;;;45.28;17.27;;;4.10;73.10;;;;;;4921408;29;20051;-79
2023/01/25 09:36:00;;;;;;;40.60;16.55;;;4.20;72.90;;;;;;4921025;29;20395;-79
2023/01/25 09:38:26;;;;;;;40.70;14.82;;;4.20;73.00;;;;;;4921080;29;20035;-79
2023/01/25 09:41:12;;;;;;;37.53;16.80;;;4.30;73.00;;;;;;4920822;29;20116;-79
2023/01/25 09:44:16;;;;;;;38.20;16.02;;;4.30;72.70;;;;;;4920710;29;20028;-79
2023/01/25 09:46:49;;;;;;;42.15;15.98;;;4.30;72.50;;;;;;4925939;29;20114;-79
2023/01/25 09:49:54;;;;;;;47.58;17.60;;;4.20;72.80;;;;;;4959414;29;20035;-79
2023/01/25 09:52:32;;;;;;;37.72;16.02;;;4.20;73.10;;;;;;4946634;29;20650;-79
2023/01/25 09:54:58;;;;;;;37.38;15.07;;;4.20;73.00;;;;;;4922653;29;20596;-79
2023/01/25 09:57:36;;;;;;;42.40;16.27;;;4.20;73.20;;;;;;4939911;29;20038;-79
2023/01/25 10:00:13;;;;;;;39.10;15.85;;;4.20;73.00;;;;;;4932414;29;20029;-79
2023/01/25 10:02:46;;;;;;;36.42;14.70;;;4.20;73.10;;;;;;4921719;29;20531;-79
2023/01/25 10:05:20;;;;;;;39.50;16.63;;;4.20;73.20;;;;;;4922831;29;20028;-80
2023/01/25 10:07:57;;;;;;;40.63;18.02;;;4.30;73.00;;;;;;4920602;29;20091;-80
2023/01/25 10:10:37;;;;;;;38.83;16.58;;;4.20;73.20;;;;;;4921536;29;20040;-80
2023/01/25 10:13:03;;;;;;;35.83;16.87;;;4.20;73.20;;;;;;4939373;29;20392;-80
2023/01/25 10:15:35;;;;;;;42.92;15.55;;;4.30;73.20;;;;;;4923376;29;20359;-80
2023/01/25 10:18:16;;;;;;;52.03;18.73;;;4.30;73.20;;;;;;4920045;29;20036;-79
2023/01/25 10:20:57;;;;;;;41.50;17.15;;;4.30;72.90;;;;;;4920265;29;20029;-80
2023/01/25 10:23:38;;;;;;;39.22;16.95;;;4.30;73.20;;;;;;4920513;29;20119;-80
2023/01/25 10:26:28;;;;;;;43.15;17.13;;;4.30;73.30;;;;;;4918785;29;20031;-80
2023/01/25 10:29:17;;;;;;;47.63;16.52;;;4.40;73.50;;;;;;4903326;29;20598;-79
2023/01/25 10:31:54;;;;;;;42.85;15.75;;;4.40;73.50;;;;;;4919687;29;20040;-80
2023/01/25 10:34:33;;;;;;;37.33;15.60;;;4.30;73.20;;;;;;4937044;29;20447;-79
2023/01/25 10:37:11;;;;;;;36.50;17.10;;;4.20;73.80;;;;;;4920140;29;20032;-80
2023/01/25 10:39:42;;;;;;;40.17;16.98;;;4.20;73.70;;;;;;4920333;29;20364;-80
2023/01/25 10:42:13;;;;;;;44.80;16.02;;;4.20;74.20;;;;;;4920079;29;20035;-80
2023/01/25 10:44:39;;;;;;;35.80;14.80;;;4.40;74.00;;;;;;4919575;29;20036;-80
2023/01/25 10:47:10;;;;;;;46.58;18.17;;;4.50;73.80;;;;;;4920269;29;20111;-79
2023/01/25 10:49:42;;;;;;;32.40;15.50;;;4.60;73.40;;;;;;4938385;29;20042;-79
2023/01/25 10:52:17;;;;;;;45.15;17.40;;;4.60;73.30;;;;;;4917777;29;20028;-79
2023/01/25 10:54:44;;;;;;;37.60;16.27;;;4.70;73.20;;;;;;4929586;29;20038;-79
2023/01/25 10:57:21;;;;;;;46.03;16.80;;;4.70;72.90;;;;;;4938865;29;20055;-80
2023/01/25 10:59:51;;;;;;;32.20;14.57;;;4.80;73.10;;;;;;4926001;29;20109;-80
2023/01/25 11:02:34;;;;;;;39.30;17.70;;;4.70;72.80;;;;;;4919310;29;20714;-79
2023/01/25 11:05:18;;;;;;;40.08;16.83;;;4.80;72.60;;;;;;4919701;29;20122;-79
2023/01/25 11:07:47;;;;;;;51.13;17.90;;;4.80;72.80;;;;;;4934125;29;20028;-80
2023/01/25 11:10:43;;;;;;;34.87;17.37;;;4.70;72.60;;;;;;4928597;29;20039;-80
2023/01/25 11:13:15;;;;;;;45.35;16.92;;;4.80;72.90;;;;;;4905991;29;20063;-79
2023/01/25 11:15:52;;;;;;;49.67;15.40;;;4.80;72.70;;;;;;4918026;29;20495;-80
2023/01/25 11:18:20;;;;;;;38.15;14.43;;;4.80;72.60;;;;;;4912732;29;20116;-80
2023/01/25 11:20:46;;;;;;;39.67;15.60;;;4.90;72.70;;;;;;4919331;29;20071;-80
2023/01/25 11:23:23;;;;;;;44.67;16.90;;;4.90;72.60;;;;;;4919553;29;20036;-80
2023/01/25 11:25:50;;;;;;;44.08;15.95;;;5.00;72.50;;;;;;4919739;29;20117;-79
2023/01/25 11:28:24;;;;;;;41.80;15.45;;;5.00;72.20;;;;;;4919965;29;20048;-80
2023/01/25 11:30:52;;;;;;;47.47;19.05;;;5.00;72.10;;;;;;4917728;29;20119;-80
2023/01/25 11:33:20;;;;;;;46.03;17.38;;;5.00;72.30;;;;;;4902809;29;20040;-80
2023/01/25 11:36:12;;;;;;;48.95;15.65;;;5.10;72.10;;;;;;4919391;29;20098;-79
2023/01/25 11:38:47;;;;;;;45.92;17.00;;;5.00;71.80;;;;;;4919494;29;20439;-80
2023/01/25 11:41:54;;;;;;;41.50;17.10;;;5.10;72.20;;;;;;4933732;29;20079;-79
2023/01/25 11:44:36;;;;;;;41.10;17.40;;;5.10;72.50;;;;;;4828568;29;20588;-79
2023/01/25 11:47:29;;;;;;;36.47;14.52;;;5.20;72.10;;;;;;4903613;29;20098;-79
2023/01/25 11:50:06;;;;;;;39.13;14.73;;;5.30;72.00;;;;;;4921989;29;20426;-80
2023/01/25 11:52:53;;;;;;;46.85;19.30;;;5.30;72.00;;;;;;4918906;29;20060;-79
2023/01/25 11:55:27;;;;;;;43.05;15.95;;;5.30;71.90;;;;;;4918027;29;20550;-79
2023/01/25 11:58:11;;;;;;;48.55;16.20;;;5.30;72.10;;;;;;4922268;29;20053;-79
2023/01/25 12:00:44;;;;;;;46.55;16.52;;;5.30;72.30;;;;;;4922201;29;20107;-79
2023/01/25 12:03:39;;;;;;;64.78;28.48;;;5.40;72.20;;;;;;4923046;29;20031;-80
2023/01/25 12:06:29;;;;;;;45.38;18.52;;;5.40;71.90;;;;;;4919179;29;20098;-80
2023/01/25 12:09:25;;;;;;;47.10;19.50;;;5.40;72.00;;;;;;4904650;29;20211;-80
2023/01/25 12:12:03;;;;;;;39.83;16.60;;;5.40;72.20;;;;;;4903094;29;20044;-79
2023/01/25 12:14:31;;;;;;;46.13;18.52;;;5.40;72.20;;;;;;4924233;29;20100;-79
2023/01/25 12:17:22;;;;;;;42.75;16.17;;;5.40;72.10;;;;;;4924206;29;20038;-79
2023/01/25 12:19:56;;;;;;;;;;;5.50;72.10;;;;;;4924006;29;20792;-80
2023/01/25 12:22:46;;;;;;;38.95;15.70;;;5.60;72.00;;;;;;4921473;29;19907;-80
2023/01/25 12:25:49;;;;;;;46.45;16.10;;;5.50;71.80;;;;;;4931207;29;20032;-79
2023/01/25 12:28:26;;;;;;;35.03;15.18;;;5.40;72.10;;;;;;4919952;29;20402;-79
2023/01/25 12:30:58;;;;;;;34.60;15.50;;;5.50;72.10;;;;;;4931078;29;20051;-80
2023/01/25 12:33:48;;;;;;;43.28;15.18;;;5.50;72.20;;;;;;4940672;29;20122;-79
2023/01/25 12:36:18;;;;;;;;;;;5.60;72.10;;;;;;4918882;29;20028;-79
2023/01/25 12:39:02;;;;;;;36.88;16.80;;;5.60;72.10;;;;;;4930516;29;20304;-79
2023/01/25 12:41:39;;;;;;;41.35;14.57;;;5.70;71.90;;;;;;4934516;29;20494;-79
2023/01/25 12:44:21;;;;;;;49.30;20.05;;;5.70;71.80;;;;;;4934043;29;20046;-78
2023/01/25 12:47:06;;;;;;;44.80;19.05;;;5.80;71.80;;;;;;4926421;29;20019;-82
2023/01/25 12:49:53;;;;;;;37.65;16.02;;;5.80;71.50;;;;;;4940097;29;20024;-80
2023/01/25 12:52:32;;;;;;;48.70;17.63;;;5.80;71.40;;;;;;4940275;29;20095;-80
2023/01/25 12:55:17;;;;;;;44.28;16.80;;;5.90;71.70;;;;;;4922932;29;20051;-81
2023/01/25 12:57:49;;;;;;;36.47;15.38;;;5.90;71.10;;;;;;4918733;29;20043;-80
2023/01/25 13:00:31;;;;;;;44.63;17.42;;;5.90;71.40;;;;;;4939506;29;20030;-80
2023/01/25 13:03:03;;;;;;;50.22;17.08;;;5.90;71.30;;;;;;4940414;29;20046;-80
2023/01/25 13:05:36;;;;;;;42.55;16.98;;;6.00;71.10;;;;;;4929802;29;20086;-80
2023/01/25 13:08:10;;;;;;;42.78;17.65;;;6.10;71.40;;;;;;4940558;29;20091;-80
2023/01/25 13:10:44;;;;;;;48.08;16.75;;;6.10;70.90;;;;;;4938351;29;20506;-80
2023/01/25 13:13:27;;;;;;;47.03;16.65;;;6.00;70.90;;;;;;4943429;29;20104;-80
2023/01/25 13:15:54;;;;;;;41.75;15.93;;;6.00;71.00;;;;;;4931838;29;20024;-81
2023/01/25 13:18:32;;;;;;;42.58;17.10;;;6.00;70.90;;;;;;4939791;29;20027;-81
2023/01/25 13:21:00;;;;;;;44.28;16.95;;;6.00;71.20;;;;;;4915704;29;20100;-80
2023/01/25 13:23:50;;;;;;;43.00;17.80;;;6.10;71.00;;;;;;4936117;29;20043;-80
2023/01/25 13:26:27;;;;;;;49.08;17.42;;;6.10;71.10;;;;;;4937324;29;20399;-81
2023/01/25 13:28:54;;;;;;;46.25;17.27;;;6.10;71.10;;;;;;4922166;29;20028;-80
2023/01/25 13:31:38;;;;;;;45.50;17.25;;;6.10;71.10;;;;;;4921209;29;20051;-81
2023/01/25 13:34:12;;;;;;;44.30;18.67;;;6.10;71.00;;;;;;4939302;29;20053;-81
2023/01/25 13:36:41;;;;;;;42.50;16.95;;;6.10;71.10;;;;;;4936546;29;20019;-80
2023/01/25 13:39:45;;;;;;;45.15;19.40;;;6.10;71.20;;;;;;4938813;29;20105;-79
2023/01/25 13:42:11;;;;;;;43.92;17.45;;;6.10;71.20;;;;;;4858104;29;20149;-79
2023/01/25 13:44:43;;;;;;;45.10;17.30;;;6.10;71.20;;;;;;4923793;29;20122;-79
2023/01/25 13:47:20;;;;;;;41.58;15.23;;;6.10;71.20;;;;;;4924146;29;20092;-80
2023/01/25 13:50:13;;;;;;;39.05;17.02;;;6.10;71.30;;;;;;4920205;29;20020;-80
2023/01/25 13:52:58;;;;;;;45.80;19.63;;;6.00;71.30;;;;;;4922901;29;20028;-80
2023/01/25 13:55:25;;;;;;;45.28;17.27;;;6.10;71.60;;;;;;4915146;29;20051;-80
2023/01/25 13:57:50;;;;;;;51.03;20.83;;;6.10;71.60;;;;;;4934252;29;20027;-80
2023/01/25 14:00:17;;;;;;;42.53;16.52;;;6.10;71.50;;;;;;4933834;29;20035;-80
2023/01/25 14:02:53;;;;;;;47.97;16.70;;;6.10;71.50;;;;;;4937027;29;20695;-81
2023/01/25 14:05:21;;;;;;;41.58;16.77;;;6.10;71.60;;;;;;4934853;29;20039;-80
2023/01/25 14:07:51;;;;;;;47.17;20.40;;;6.10;71.60;;;;;;4932455;29;20023;-80
2023/01/25 14:10:22;;;;;;;39.67;16.50;;;6.00;71.60;;;;;;4929047;29;20083;-80
2023/01/25 14:12:49;;;;;;;46.25;17.70;;;6.10;71.80;;;;;;4922564;29;20059;-80
2023/01/25 14:15:25;;;;;;;40.72;16.98;;;6.10;71.80;;;;;;4920485;29;20070;-80
2023/01/25 14:18:18;;;;;;;36.55;16.63;;;6.10;71.60;;;;;;4922509;29;20091;-80
2023/01/25 14:20:46;;;;;;;44.45;18.25;;;6.10;71.90;;;;;;4924349;29;20026;-80
2023/01/25 14:23:28;;;;;;;35.65;15.90;;;6.10;71.90;;;;;;4921640;29;20027;-80
2023/01/25 14:25:57;;;;;;;44.42;16.73;;;6.10;72.10;;;;;;4906722;29;20023;-86
2023/01/25 14:28:24;;;;;;;40.95;19.02;;;6.00;72.20;;;;;;4921159;29;20483;-78
2023/01/25 14:30:55;;;;;;;47.92;17.80;;;6.00;72.30;;;;;;4930804;29;20099;-79
2023/01/25 14:33:36;;;;;;;43.60;18.58;;;6.00;72.60;;;;;;4920895;29;20126;-79
2023/01/25 14:36:08;;;;;;;49.25;18.05;;;6.00;72.70;;;;;;4936488;29;20020;-79
2023/01/25 14:38:40;;;;;;;37.50;16.17;;;6.00;72.80;;;;;;4934965;29;20036;-79
2023/01/25 14:41:14;;;;;;;41.70;17.60;;;6.00;72.70;;;;;;4938276;29;20023;-79
2023/01/25 14:43:49;;;;;;;39.20;14.00;;;6.00;72.80;;;;;;4919615;29;20064;-79
2023/01/25 14:46:21;;;;;;;42.78;18.23;;;6.10;72.80;;;;;;4938622;29;20028;-79
2023/01/25 14:48:46;;;;;;;48.85;19.70;;;6.10;72.80;;;;;;4933293;29;20038;-79
2023/01/25 14:51:27;;;;;;;38.45;17.55;;;6.20;72.60;;;;;;4936570;29;20020;-79
2023/01/25 14:54:03;;;;;;;43.78;18.83;;;6.20;72.70;;;;;;4933102;29;20028;-79
2023/01/25 14:56:45;;;;;;;44.65;15.45;;;6.10;73.00;;;;;;4918129;29;20494;-79
2023/01/25 14:59:26;;;;;;;49.88;21.40;;;6.10;72.90;;;;;;4931839;29;20444;-79
2023/01/25 15:01:53;;;;;;;37.08;18.00;;;6.10;72.90;;;;;;4917736;29;20505;-79
2023/01/25 15:04:19;;;;;;;47.00;19.92;;;6.20;72.80;;;;;;4937381;29;20092;-79
2023/01/25 15:06:47;;;;;;;49.60;22.33;;;6.10;72.80;;;;;;4935657;29;20028;-79
2023/01/25 15:09:38;;;;;;;43.60;19.13;;;6.10;73.10;;;;;;4939769;29;20131;-80
2023/01/25 15:12:24;;;;;;;26.67;14.45;;;6.00;73.30;;;;;;4915358;29;20034;-77
2023/01/25 15:14:51;;;;;;;33.80;15.10;;;6.10;73.40;;;;;;4922314;29;20499;-79
2023/01/25 15:17:35;;;;;;;30.33;16.35;;;6.10;73.00;;;;;;4925468;29;20170;-78
2023/01/25 15:20:01;;;;;;;29.85;12.90;;;5.90;73.00;;;;;;4927418;29;20039;-79
2023/01/25 15:22:27;;;;;;;22.65;10.85;;;5.90;73.20;;;;;;4936079;29;20477;-78
2023/01/25 15:24:52;;;;;;;37.50;14.05;;;5.80;73.30;;;;;;4919902;29;20128;-78
2023/01/25 15:27:18;;;;;;;31.20;15.70;;;5.80;73.30;;;;;;4931387;29;20024;-79
2023/01/25 15:29:44;;;;;;;27.13;13.00;;;5.80;73.40;;;;;;4937097;29;20106;-78
2023/01/25 15:32:19;;;;;;;30.67;14.40;;;5.90;73.30;;;;;;4935560;29;20079;-78
2023/01/25 15:34:45;;;;;;;33.25;14.30;;;5.90;73.20;;;;;;4937539;29;20047;-78
2023/01/25 15:37:11;;;;;;;25.30;11.93;;;5.90;73.30;;;;;;4935725;29;20034;-78
2023/01/25 15:39:37;;;;;;;27.67;14.07;;;5.80;73.30;;;;;;4937362;29;20040;-78
2023/01/25 15:42:04;;;;;;;32.30;12.88;;;5.80;73.40;;;;;;4939129;29;20066;-78
2023/01/25 15:44:30;;;;;;;25.55;13.23;;;5.90;73.30;;;;;;4939444;29;20035;-78
2023/01/25 15:46:56;;;;;;;30.77;14.13;;;5.80;73.20;;;;;;4943550;29;20080;-79
2023/01/25 15:49:27;;;;;;;31.63;14.45;;;5.90;73.30;;;;;;4941742;29;20036;-79
2023/01/25 15:51:54;;;;;;;29.27;13.38;;;5.90;73.30;;;;;;4938211;29;20031;-79
2023/01/25 15:54:20;;;;;;;29.63;13.82;;;6.00;73.10;;;;;;4934749;29;20126;-79
2023/01/25 15:56:50;;;;;;;27.52;10.82;;;6.00;73.00;;;;;;4941025;29;20047;-79
2023/01/25 15:59:17;;;;;;;27.33;12.48;;;6.00;73.00;;;;;;4940986;29;20422;-78
2023/01/25 16:01:43;;;;;;;21.83;12.15;;;5.90;73.10;;;;;;4930900;29;20024;-78
2023/01/25 16:04:12;;;;;;;24.95;10.68;;;5.90;73.10;;;;;;4920089;29;20044;-78
2023/01/25 16:06:49;;;;;;;31.02;13.95;;;6.00;73.10;;;;;;4940347;29;20051;-78
2023/01/25 16:09:24;;;;;;;25.70;10.20;;;5.90;73.00;;;;;;4930097;29;20032;-79
2023/01/25 16:11:52;;;;;;;23.88;11.13;;;6.00;73.10;;;;;;4936436;29;20034;-78
2023/01/25 16:14:18;;;;;;;29.52;12.48;;;6.00;73.00;;;;;;4938354;29;20024;-78
2023/01/25 16:16:47;;;;;;;21.88;10.40;;;6.00;73.10;;;;;;4937722;29;20402;-78
2023/01/25 16:19:15;;;;;;;26.67;13.03;;;6.00;73.30;;;;;;4923041;29;20020;-78
2023/01/25 16:21:42;;;;;;;27.77;11.57;;;6.00;73.40;;;;;;4927464;29;20063;-79
2023/01/25 16:24:09;;;;;;;28.00;12.00;;;6.00;73.50;;;;;;4922564;29;20028;-79
2023/01/25 16:26:37;;;;;;;31.10;13.27;;;6.00;73.60;;;;;;4911317;29;20024;-79
2023/01/25 16:29:03;;;;;;;24.27;11.82;;;6.00;73.50;;;;;;4920821;29;20055;-79
2023/01/25 16:31:28;;;;;;;21.88;11.80;;;6.10;73.60;;;;;;4903520;29;20079;-80
2023/01/25 16:33:54;;;;;;;25.45;12.93;;;6.10;73.50;;;;;;4922370;29;20063;-80
2023/01/25 16:36:21;;;;;;;24.17;11.43;;;6.10;73.60;;;;;;4923162;29;20123;-80
2023/01/25 16:38:47;;;;;;;24.60;11.57;;;6.00;73.70;;;;;;4926185;29;20027;-81
2023/01/25 16:41:14;;;;;;;39.83;13.70;;;6.00;73.80;;;;;;4935470;29;20023;-80
2023/01/25 16:43:46;;;;;;;22.45;11.02;;;6.00;73.90;;;;;;4943126;29;20078;-79
2023/01/25 16:46:21;;;;;;;24.92;13.45;;;6.00;74.00;;;;;;4941369;29;20082;-77
2023/01/25 16:48:48;;;;;;;24.67;13.13;;;6.00;74.10;;;;;;4938581;29;20032;-86
2023/01/25 16:51:26;;;;;;;25.70;13.00;;;6.10;74.10;;;;;;4912489;29;20032;-85
2023/01/25 16:53:54;;;;;;;24.80;10.50;;;6.10;74.10;;;;;;4938284;29;20027;-84
2023/01/25 16:56:22;;;;;;;28.55;13.45;;;6.00;74.30;;;;;;4920622;29;20083;-85
2023/01/25 16:58:51;;;;;;;28.67;13.13;;;6.10;74.20;;;;;;4933446;29;20023;-85
2023/01/25 17:01:19;;;;;;;30.15;12.88;;;6.00;74.30;;;;;;4936849;29;20020;-89
2023/01/25 17:03:45;;;;;;;21.80;11.82;;;6.00;74.40;;;;;;4915497;29;20028;-90
2023/01/25 17:06:23;;;;;;;32.67;13.23;;;6.00;74.50;;;;;;4930916;29;20042;-85
2023/01/25 17:08:50;;;;;;;26.95;11.82;;;6.00;74.60;;;;;;4937253;29;20027;-87
2023/01/25 17:11:20;;;;;;;34.45;14.70;;;6.00;74.60;;;;;;4913092;29;20060;-84
2023/01/25 17:13:47;;;;;;;;;;;6.00;74.60;;;;;;4918254;29;20075;-81
2023/01/25 17:16:13;;;;;;;25.65;11.82;;;6.00;74.60;;;;;;4915300;29;20413;-87
2023/01/25 17:18:38;;;;;;;25.38;14.13;;;6.00;74.70;;;;;;4936660;29;20099;-80
2023/01/25 17:21:05;;;;;;;29.33;14.65;;;5.90;74.80;;;;;;4937995;29;20036;-78
2023/01/25 17:23:33;;;;;;;34.97;17.67;;;5.90;74.90;;;;;;4936143;29;20040;-78
2023/01/25 17:26:06;;;;;;;32.58;15.48;;;5.90;74.70;;;;;;4939526;29;20398;-78
2023/01/25 17:28:32;;;;;;;31.40;15.93;;;5.80;74.70;;;;;;4939497;29;20562;-78
2023/01/25 17:30:59;;;;;;;30.90;15.52;;;5.80;74.90;;;;;;4922416;29;20211;-78
2023/01/25 17:33:24;;;;;;;41.20;19.25;;;5.80;75.10;;;;;;4935693;29;20027;-78
2023/01/25 17:35:51;;;;;;;32.60;18.17;;;5.70;75.20;;;;;;4922941;29;20036;-78
2023/01/25 17:38:19;;;;;;;33.08;15.38;;;5.70;75.20;;;;;;4922278;29;20076;-78
2023/01/25 17:40:44;;;;;;;30.00;16.90;;;5.70;75.20;;;;;;4922297;29;20052;-78
2023/01/25 17:43:10;;;;;;;40.85;17.67;;;5.70;75.20;;;;;;4933104;29;20466;-78
2023/01/25 17:45:38;;;;;;;41.60;18.80;;;5.80;75.30;;;;;;4939154;29;20176;-79
2023/01/25 17:48:10;;;;;;;28.83;15.77;;;5.70;75.30;;;;;;4939502;29;20039;-79
2023/01/25 17:50:36;;;;;;;33.50;16.98;;;5.70;75.20;;;;;;4939156;29;20565;-79
2023/01/25 17:53:03;;;;;;;37.10;17.35;;;5.70;75.30;;;;;;4931238;29;20034;-79
2023/01/25 17:55:29;;;;;;;34.72;18.20;;;5.70;75.50;;;;;;4934873;29;20056;-79
2023/01/25 17:57:55;;;;;;;33.53;18.50;;;5.70;75.70;;;;;;4919979;29;20073;-78
2023/01/25 18:00:21;;;;;;;37.88;18.83;;;5.70;75.60;;;;;;4938073;29;20027;-79
2023/01/25 18:02:47;;;;;;;36.10;18.13;;;5.70;75.70;;;;;;4936805;29;20039;-79
2023/01/25 18:05:14;;;;;;;38.47;18.60;;;5.70;76.00;;;;;;4937201;29;20089;-78
2023/01/25 18:07:40;;;;;;;35.97;18.90;;;5.70;75.80;;;;;;4936569;29;20047;-79
2023/01/25 18:10:07;;;;;;;36.58;18.55;;;5.70;75.90;;;;;;4935357;29;20035;-78
2023/01/25 18:12:35;;;;;;;37.58;19.80;;;5.80;76.10;;;;;;4934846;29;20030;-81
2023/01/25 18:15:01;;;;;;;37.88;18.48;;;5.70;75.90;;;;;;4935203;29;20055;-80
2023/01/25 18:17:26;;;;;;;39.03;18.15;;;5.70;76.10;;;;;;4920082;29;20035;-77
2023/01/25 18:19:52;;;;;;;38.47;19.23;;;5.80;75.90;;;;;;4934992;29;20486;-77
2023/01/25 18:22:17;;;;;;;37.40;18.20;;;5.80;75.90;;;;;;4934957;29;20028;-77
2023/01/25 18:24:44;;;;;;;32.40;17.77;;;5.80;75.80;;;;;;4921573;29;20032;-79
2023/01/25 18:27:20;;;;;;;33.90;19.35;;;5.80;75.80;;;;;;4923406;29;20039;-76
2023/01/25 18:30:32;;;;;;;43.30;19.00;;;5.80;75.70;;;;;;4921644;29;20082;-83
2023/01/25 18:32:58;;;;;;;31.73;17.40;;;5.80;75.70;;;;;;4927140;29;20038;-81